Startpagina
METAR-TAF:

METAR-TAF

Vliegvelden :

Malé International Airport

Malé, Maldiven

breedte: 04-12N, lengte: 073-32E, hoogte: 2 m

Actueel weer

Dit bericht is 1 uur en het 20 minuten geleden gemaakt, om 19:00 UTC
Wind 2 kt uit variabele richting
Temperatuur 28°C
Vochtigheid 74%
Druk 1013 hPa
Zicht 10 km of meer
Weinig wolken op 1800 ft

METAR: VRMM 151900Z VRB02KT 9999 FEW018 28/23 Q1013 NOSIG

Tijdstip: 01:20 (20:20 UTC)

Verwachting

Dit bericht is 3 uur en het 20 minuten geleden gemaakt, om 17:00 UTC
Verwachting geldig van 15 om 18 UTC tot 16 om 24 UTC
Wind 5 kt uit het westzuidwesten
Zicht 10 km of meer
Weinig wolken op 1800 ft
Tijdelijke
van 15 om 18 UTC tot 15 om 24 UTC
Weinig wolken op 2000 ft, Cumulonimbus.

TAF: VRMM 151700Z 1518/1624 25005KT 9999 FEW018 TEMPO 1518/1524 FEW020CB

Waarnemingen en weersverwachtingen van meer dan 4000 vliegvelden (METAR en TAF).

De beschikbare stations zijn de gele en rode punten op de kaart.

Ga met uw muis naar het station om de naam te zien.

Klik dan om waarnemingen en weersverwachtingen te zien.

kaart wijzigen: klik op de groene knoppen met een zwart kruis om in te zoomen, op de groene knop met een streepje om uit te zoomen of op de groene pijlen voor aangrenzende kaarten.


METAR-TAF: